sensor_id;sensor_type;location;lat;lon;timestamp;pressure;altitude;pressure_sealevel;temperature;humidity
68986;BME280;56035;37.534;-122.308;2023-06-01T00:02:09;100921.41;;;15.62;98.88
68986;BME280;56035;37.534;-122.308;2023-06-01T00:04:35;100916.38;;;15.59;96.72
68986;BME280;56035;37.534;-122.308;2023-06-01T00:07:06;100921.38;;;15.52;97.33
68986;BME280;56035;37.534;-122.308;2023-06-01T00:09:32;100922.69;;;15.39;98.58
68986;BME280;56035;37.534;-122.308;2023-06-01T00:11:59;100925.75;;;15.37;100.00
68986;BME280;56035;37.534;-122.308;2023-06-01T00:14:26;100927.38;;;15.28;100.00
68986;BME280;56035;37.534;-122.308;2023-06-01T00:16:51;100919.03;;;15.28;100.00
68986;BME280;56035;37.534;-122.308;2023-06-01T00:19:17;100924.25;;;15.14;100.00
68986;BME280;56035;37.534;-122.308;2023-06-01T00:21:43;100913.56;;;14.96;100.00
68986;BME280;56035;37.534;-122.308;2023-06-01T00:24:09;100911.56;;;14.86;100.00
68986;BME280;56035;37.534;-122.308;2023-06-01T00:26:35;100909.63;;;14.87;100.00
68986;BME280;56035;37.534;-122.308;2023-06-01T00:29:02;100911.75;;;14.74;100.00
68986;BME280;56035;37.534;-122.308;2023-06-01T00:31:28;100917.31;;;14.74;100.00
68986;BME280;56035;37.534;-122.308;2023-06-01T00:33:54;100918.91;;;14.65;100.00
68986;BME280;56035;37.534;-122.308;2023-06-01T00:36:20;100918.63;;;14.62;100.00
68986;BME280;56035;37.534;-122.308;2023-06-01T00:38:45;100916.63;;;14.57;100.00
68986;BME280;56035;37.534;-122.308;2023-06-01T00:41:11;100914.25;;;14.44;100.00
68986;BME280;56035;37.534;-122.308;2023-06-01T00:43:37;100908.72;;;14.44;100.00
68986;BME280;56035;37.534;-122.308;2023-06-01T00:46:03;100909.84;;;14.48;100.00
68986;BME280;56035;37.534;-122.308;2023-06-01T00:48:29;100910.59;;;14.38;100.00
68986;BME280;56035;37.534;-122.308;2023-06-01T00:50:55;100897.59;;;14.39;100.00
68986;BME280;56035;37.534;-122.308;2023-06-01T00:53:22;100916.13;;;14.33;100.00
68986;BME280;56035;37.534;-122.308;2023-06-01T00:55:49;100933.28;;;14.30;100.00
68986;BME280;56035;37.534;-122.308;2023-06-01T00:58:15;100913.78;;;14.20;100.00
68986;BME280;56035;37.534;-122.308;2023-06-01T01:00:43;100906.25;;;14.15;100.00
68986;BME280;56035;37.534;-122.308;2023-06-01T01:03:09;100902.31;;;14.11;100.00
68986;BME280;56035;37.534;-122.308;2023-06-01T01:05:36;100905.94;;;14.12;100.00
68986;BME280;56035;37.534;-122.308;2023-06-01T01:08:08;100910.91;;;14.10;100.00
68986;BME280;56035;37.534;-122.308;2023-06-01T01:10:45;100911.66;;;14.00;100.00
68986;BME280;56035;37.534;-122.308;2023-06-01T01:16:00;100908.81;;;13.95;100.00
68986;BME280;56035;37.534;-122.308;2023-06-01T01:18:36;100903.75;;;13.87;100.00
68986;BME280;56035;37.534;-122.308;2023-06-01T01:21:03;100905.25;;;13.72;100.00
68986;BME280;56035;37.534;-122.308;2023-06-01T01:29:19;100919.44;;;13.54;100.00
68986;BME280;56035;37.534;-122.308;2023-06-01T01:31:46;100920.19;;;13.49;100.00
68986;BME280;56035;37.534;-122.308;2023-06-01T01:34:14;100928.03;;;13.35;100.00
68986;BME280;56035;37.534;-122.308;2023-06-01T01:36:42;100926.72;;;13.21;100.00
68986;BME280;56035;37.534;-122.308;2023-06-01T01:39:08;100923.03;;;13.16;100.00
68986;BME280;56035;37.534;-122.308;2023-06-01T01:41:34;100922.53;;;13.19;100.00
68986;BME280;56035;37.534;-122.308;2023-06-01T01:44:00;100916.34;;;13.11;100.00
68986;BME280;56035;37.534;-122.308;2023-06-01T01:46:41;100916.03;;;13.08;100.00
68986;BME280;56035;37.534;-122.308;2023-06-01T01:54:25;100906.91;;;12.91;100.00
68986;BME280;56035;37.534;-122.308;2023-06-01T01:56:52;100916.53;;;12.88;100.00
68986;BME280;56035;37.534;-122.308;2023-06-01T01:59:19;100925.94;;;12.87;100.00
68986;BME280;56035;37.534;-122.308;2023-06-01T02:01:47;100917.31;;;12.83;100.00
68986;BME280;56035;37.534;-122.308;2023-06-01T02:04:12;100914.13;;;12.75;100.00
68986;BME280;56035;37.534;-122.308;2023-06-01T02:06:38;100926.56;;;12.72;100.00
68986;BME280;56035;37.534;-122.308;2023-06-01T02:09:04;100913.75;;;12.66;100.00
68986;BME280;56035;37.534;-122.308;2023-06-01T02:11:33;100916.50;;;12.66;100.00
68986;BME280;56035;37.534;-122.308;2023-06-01T02:13:59;100916.91;;;12.58;100.00
68986;BME280;56035;37.534;-122.308;2023-06-01T02:16:25;100915.41;;;12.50;100.00
68986;BME280;56035;37.534;-122.308;2023-06-01T02:18:51;100915.41;;;12.50;100.00
68986;BME280;56035;37.534;-122.308;2023-06-01T02:21:18;100914.59;;;12.50;100.00
68986;BME280;56035;37.534;-122.308;2023-06-01T02:23:44;100923.53;;;12.40;100.00
68986;BME280;56035;37.534;-122.308;2023-06-01T02:26:10;100933.16;;;12.37;100.00
68986;BME280;56035;37.534;-122.308;2023-06-01T02:28:36;100926.47;;;12.33;100.00
68986;BME280;56035;37.534;-122.308;2023-06-01T02:31:02;100934.91;;;12.27;100.00
68986;BME280;56035;37.534;-122.308;2023-06-01T02:33:28;100930.94;;;12.23;100.00
68986;BME280;56035;37.534;-122.308;2023-06-01T02:35:54;100925.25;;;12.12;100.00
68986;BME280;56035;37.534;-122.308;2023-06-01T02:38:20;100924.91;;;12.09;100.00
68986;BME280;56035;37.534;-122.308;2023-06-01T02:40:46;100931.75;;;12.06;100.00
68986;BME280;56035;37.534;-122.308;2023-06-01T02:43:11;100926.41;;;12.00;100.00
68986;BME280;56035;37.534;-122.308;2023-06-01T02:45:37;100928.59;;;11.98;100.00
68986;BME280;56035;37.534;-122.308;2023-06-01T02:48:03;100932.94;;;11.93;100.00
68986;BME280;56035;37.534;-122.308;2023-06-01T02:50:29;100932.22;;;11.86;100.00
68986;BME280;56035;37.534;-122.308;2023-06-01T02:52:55;100934.41;;;11.84;100.00
68986;BME280;56035;37.534;-122.308;2023-06-01T02:55:21;100927.91;;;11.79;100.00
68986;BME280;56035;37.534;-122.308;2023-06-01T02:57:47;100934.66;;;11.71;100.00
68986;BME280;56035;37.534;-122.308;2023-06-01T03:00:13;100943.31;;;11.63;100.00
68986;BME280;56035;37.534;-122.308;2023-06-01T03:02:42;100941.38;;;11.63;100.00
68986;BME280;56035;37.534;-122.308;2023-06-01T03:05:10;100933.25;;;11.57;100.00
68986;BME280;56035;37.534;-122.308;2023-06-01T03:07:46;100947.53;;;11.54;100.00
68986;BME280;56035;37.534;-122.308;2023-06-01T03:10:12;100946.63;;;11.48;100.00
68986;BME280;56035;37.534;-122.308;2023-06-01T03:12:38;100942.06;;;11.42;100.00
68986;BME280;56035;37.534;-122.308;2023-06-01T03:15:04;100948.06;;;11.39;100.00
68986;BME280;56035;37.534;-122.308;2023-06-01T03:17:30;100946.03;;;11.34;100.00
68986;BME280;56035;37.534;-122.308;2023-06-01T03:19:57;100939.81;;;11.27;100.00
68986;BME280;56035;37.534;-122.308;2023-06-01T03:22:23;100933.44;;;11.27;100.00
68986;BME280;56035;37.534;-122.308;2023-06-01T03:24:49;100940.06;;;11.25;100.00
68986;BME280;56035;37.534;-122.308;2023-06-01T03:27:16;100929.75;;;11.21;100.00
68986;BME280;56035;37.534;-122.308;2023-06-01T03:29:42;100937.44;;;11.19;100.00
68986;BME280;56035;37.534;-122.308;2023-06-01T03:32:07;100936.81;;;11.17;100.00
68986;BME280;56035;37.534;-122.308;2023-06-01T03:34:33;100932.03;;;11.12;100.00
68986;BME280;56035;37.534;-122.308;2023-06-01T03:37:04;100928.69;;;11.10;100.00
68986;BME280;56035;37.534;-122.308;2023-06-01T03:39:30;100918.97;;;11.08;100.00
68986;BME280;56035;37.534;-122.308;2023-06-01T03:41:59;100919.22;;;11.06;100.00
68986;BME280;56035;37.534;-122.308;2023-06-01T03:44:25;100916.34;;;11.01;100.00
68986;BME280;56035;37.534;-122.308;2023-06-01T03:46:52;100918.25;;;11.00;100.00
68986;BME280;56035;37.534;-122.308;2023-06-01T03:49:18;100920.66;;;10.97;100.00
68986;BME280;56035;37.534;-122.308;2023-06-01T03:51:44;100926.44;;;10.95;100.00
68986;BME280;56035;37.534;-122.308;2023-06-01T03:54:09;100927.50;;;10.94;100.00
68986;BME280;56035;37.534;-122.308;2023-06-01T03:56:35;100930.72;;;10.91;100.00
68986;BME280;56035;37.534;-122.308;2023-06-01T03:59:01;100928.81;;;10.92;100.00
68986;BME280;56035;37.534;-122.308;2023-06-01T04:01:27;100930.16;;;10.89;100.00
68986;BME280;56035;37.534;-122.308;2023-06-01T04:03:57;100925.34;;;10.85;100.00
68986;BME280;56035;37.534;-122.308;2023-06-01T04:06:25;100939.13;;;10.85;100.00
68986;BME280;56035;37.534;-122.308;2023-06-01T04:08:54;100937.66;;;10.82;100.00
68986;BME280;56035;37.534;-122.308;2023-06-01T04:11:26;100944.03;;;10.83;100.00
68986;BME280;56035;37.534;-122.308;2023-06-01T04:13:52;100943.19;;;10.82;100.00
68986;BME280;56035;37.534;-122.308;2023-06-01T04:16:18;100947.97;;;10.75;100.00
68986;BME280;56035;37.534;-122.308;2023-06-01T04:18:44;100952.91;;;10.73;100.00
68986;BME280;56035;37.534;-122.308;2023-06-01T04:21:10;100950.63;;;10.70;100.00
68986;BME280;56035;37.534;-122.308;2023-06-01T04:23:35;100957.44;;;10.67;100.00
68986;BME280;56035;37.534;-122.308;2023-06-01T04:26:02;100958.19;;;10.63;100.00
68986;BME280;56035;37.534;-122.308;2023-06-01T04:28:31;100962.13;;;10.67;100.00
68986;BME280;56035;37.534;-122.308;2023-06-01T04:30:57;100969.41;;;10.61;100.00
68986;BME280;56035;37.534;-122.308;2023-06-01T04:33:24;100969.19;;;10.63;100.00
68986;BME280;56035;37.534;-122.308;2023-06-01T04:35:50;100970.72;;;10.59;100.00
68986;BME280;56035;37.534;-122.308;2023-06-01T04:38:18;100974.09;;;10.61;100.00
68986;BME280;56035;37.534;-122.308;2023-06-01T04:40:44;100966.91;;;10.60;100.00
68986;BME280;56035;37.534;-122.308;2023-06-01T04:43:10;100973.00;;;10.62;100.00
68986;BME280;56035;37.534;-122.308;2023-06-01T04:45:37;100979.81;;;10.59;100.00
68986;BME280;56035;37.534;-122.308;2023-06-01T04:48:07;100971.34;;;10.61;100.00
68986;BME280;56035;37.534;-122.308;2023-06-01T04:50:34;100976.84;;;10.61;100.00
68986;BME280;56035;37.534;-122.308;2023-06-01T04:53:00;100966.44;;;10.63;100.00
68986;BME280;56035;37.534;-122.308;2023-06-01T04:55:26;100973.72;;;10.57;100.00
68986;BME280;56035;37.534;-122.308;2023-06-01T04:57:52;100968.22;;;10.57;100.00
68986;BME280;56035;37.534;-122.308;2023-06-01T05:00:18;100969.28;;;10.56;100.00
68986;BME280;56035;37.534;-122.308;2023-06-01T05:02:45;100968.31;;;10.50;100.00
68986;BME280;56035;37.534;-122.308;2023-06-01T05:05:13;100969.38;;;10.49;100.00
68986;BME280;56035;37.534;-122.308;2023-06-01T05:07:39;100964.59;;;10.45;100.00
68986;BME280;56035;37.534;-122.308;2023-06-01T05:10:06;100978.00;;;10.41;100.00
68986;BME280;56035;37.534;-122.308;2023-06-01T05:12:32;100984.59;;;10.40;100.00
68986;BME280;56035;37.534;-122.308;2023-06-01T05:14:59;100985.06;;;10.37;100.00
68986;BME280;56035;37.534;-122.308;2023-06-01T05:17:25;100980.59;;;10.36;100.00
68986;BME280;56035;37.534;-122.308;2023-06-01T05:19:51;100985.75;;;10.32;100.00
68986;BME280;56035;37.534;-122.308;2023-06-01T05:22:17;100985.53;;;10.34;100.00
68986;BME280;56035;37.534;-122.308;2023-06-01T05:24:43;100982.63;;;10.29;100.00
68986;BME280;56035;37.534;-122.308;2023-06-01T05:27:08;100974.63;;;10.27;100.00
68986;BME280;56035;37.534;-122.308;2023-06-01T05:29:34;100973.06;;;10.31;100.00
68986;BME280;56035;37.534;-122.308;2023-06-01T05:32:00;100986.00;;;10.31;100.00
68986;BME280;56035;37.534;-122.308;2023-06-01T05:34:26;100982.41;;;10.30;100.00
68986;BME280;56035;37.534;-122.308;2023-06-01T05:36:52;100976.72;;;10.25;100.00
68986;BME280;56035;37.534;-122.308;2023-06-01T05:39:17;100979.72;;;10.24;100.00
68986;BME280;56035;37.534;-122.308;2023-06-01T05:41:43;100996.25;;;10.24;100.00
68986;BME280;56035;37.534;-122.308;2023-06-01T05:44:09;100986.28;;;10.23;100.00
68986;BME280;56035;37.534;-122.308;2023-06-01T05:46:35;100986.53;;;10.21;100.00
68986;BME280;56035;37.534;-122.308;2023-06-01T05:49:01;100996.72;;;10.21;100.00
68986;BME280;56035;37.534;-122.308;2023-06-01T05:51:26;100995.25;;;10.18;100.00
68986;BME280;56035;37.534;-122.308;2023-06-01T05:53:52;100995.97;;;10.14;100.00
68986;BME280;56035;37.534;-122.308;2023-06-01T05:56:18;100996.34;;;10.17;100.00
68986;BME280;56035;37.534;-122.308;2023-06-01T05:58:44;100988.75;;;10.13;100.00
68986;BME280;56035;37.534;-122.308;2023-06-01T06:01:10;100998.47;;;10.15;100.00
68986;BME280;56035;37.534;-122.308;2023-06-01T06:03:36;100984.47;;;10.17;100.00
68986;BME280;56035;37.534;-122.308;2023-06-01T06:06:03;100984.97;;;10.14;100.00
68986;BME280;56035;37.534;-122.308;2023-06-01T06:08:29;100983.50;;;10.11;100.00
68986;BME280;56035;37.534;-122.308;2023-06-01T06:10:55;100992.44;;;10.06;100.00
68986;BME280;56035;37.534;-122.308;2023-06-01T06:13:21;100989.22;;;10.09;100.00
68986;BME280;56035;37.534;-122.308;2023-06-01T06:15:47;100991.53;;;10.13;100.00
68986;BME280;56035;37.534;-122.308;2023-06-01T06:18:13;100989.69;;;10.06;100.00
68986;BME280;56035;37.534;-122.308;2023-06-01T06:20:39;100991.41;;;10.07;100.00
68986;BME280;56035;37.534;-122.308;2023-06-01T06:23:05;100985.88;;;10.07;100.00
68986;BME280;56035;37.534;-122.308;2023-06-01T06:25:30;100997.94;;;10.06;100.00
68986;BME280;56035;37.534;-122.308;2023-06-01T06:27:56;100987.66;;;10.02;100.00
68986;BME280;56035;37.534;-122.308;2023-06-01T06:30:22;100990.94;;;10.11;100.00
68986;BME280;56035;37.534;-122.308;2023-06-01T06:32:49;100987.56;;;10.08;100.00
68986;BME280;56035;37.534;-122.308;2023-06-01T06:35:15;100991.03;;;10.04;100.00
68986;BME280;56035;37.534;-122.308;2023-06-01T06:37:41;100988.75;;;10.01;100.00
68986;BME280;56035;37.534;-122.308;2023-06-01T06:40:08;100994.47;;;9.99;100.00
68986;BME280;56035;37.534;-122.308;2023-06-01T06:42:34;100991.13;;;9.97;100.00
68986;BME280;56035;37.534;-122.308;2023-06-01T06:45:01;100996.63;;;9.97;100.00
68986;BME280;56035;37.534;-122.308;2023-06-01T06:47:29;100993.47;;;9.94;100.00
68986;BME280;56035;37.534;-122.308;2023-06-01T06:49:55;100988.97;;;9.99;100.00
68986;BME280;56035;37.534;-122.308;2023-06-01T06:52:21;100991.13;;;9.97;100.00
68986;BME280;56035;37.534;-122.308;2023-06-01T06:54:47;100992.78;;;9.98;100.00
68986;BME280;56035;37.534;-122.308;2023-06-01T06:57:13;100994.25;;;10.01;100.00
68986;BME280;56035;37.534;-122.308;2023-06-01T06:59:38;100993.16;;;10.02;100.00
68986;BME280;56035;37.534;-122.308;2023-06-01T07:02:04;100990.41;;;10.02;100.00
68986;BME280;56035;37.534;-122.308;2023-06-01T07:04:30;100993.16;;;10.02;100.00
68986;BME280;56035;37.534;-122.308;2023-06-01T07:06:56;100986.19;;;9.99;100.00
68986;BME280;56035;37.534;-122.308;2023-06-01T07:09:22;100980.31;;;9.96;100.00
68986;BME280;56035;37.534;-122.308;2023-06-01T07:11:48;100980.56;;;9.94;100.00
68986;BME280;56035;37.534;-122.308;2023-06-01T07:14:14;100985.47;;;9.92;100.00
68986;BME280;56035;37.534;-122.308;2023-06-01T07:16:40;100981.50;;;9.88;100.00
68986;BME280;56035;37.534;-122.308;2023-06-01T07:19:06;100969.88;;;9.86;100.00
68986;BME280;56035;37.534;-122.308;2023-06-01T07:21:32;100975.84;;;9.83;100.00
68986;BME280;56035;37.534;-122.308;2023-06-01T07:23:58;100980.25;;;9.84;100.00
68986;BME280;56035;37.534;-122.308;2023-06-01T07:26:24;100977.75;;;9.82;100.00
68986;BME280;56035;37.534;-122.308;2023-06-01T07:28:52;100971.41;;;9.82;100.00
68986;BME280;56035;37.534;-122.308;2023-06-01T07:31:19;100965.91;;;9.82;100.00
68986;BME280;56035;37.534;-122.308;2023-06-01T07:33:45;100970.59;;;9.81;100.00
68986;BME280;56035;37.534;-122.308;2023-06-01T07:36:11;100977.38;;;9.79;100.00
68986;BME280;56035;37.534;-122.308;2023-06-01T07:38:37;100969.75;;;9.81;100.00
68986;BME280;56035;37.534;-122.308;2023-06-01T07:41:03;100976.31;;;9.80;100.00
68986;BME280;56035;37.534;-122.308;2023-06-01T07:43:29;100979.66;;;9.82;100.00
68986;BME280;56035;37.534;-122.308;2023-06-01T07:45:54;100970.78;;;9.80;100.00
68986;BME280;56035;37.534;-122.308;2023-06-01T07:48:20;100976.47;;;9.85;100.00
68986;BME280;56035;37.534;-122.308;2023-06-01T07:50:46;100973.69;;;9.85;100.00
68986;BME280;56035;37.534;-122.308;2023-06-01T07:53:12;100975.63;;;9.84;100.00
68986;BME280;56035;37.534;-122.308;2023-06-01T07:55:38;100969.41;;;9.89;100.00
68986;BME280;56035;37.534;-122.308;2023-06-01T07:58:04;100974.53;;;9.85;100.00
68986;BME280;56035;37.534;-122.308;2023-06-01T08:00:31;100975.25;;;9.81;100.00
68986;BME280;56035;37.534;-122.308;2023-06-01T08:02:56;100978.59;;;9.83;100.00
68986;BME280;56035;37.534;-122.308;2023-06-01T08:05:31;100976.66;;;9.83;100.00
68986;BME280;56035;37.534;-122.308;2023-06-01T08:07:57;100973.53;;;9.80;100.00
68986;BME280;56035;37.534;-122.308;2023-06-01T08:10:23;100970.59;;;9.81;100.00
68986;BME280;56035;37.534;-122.308;2023-06-01T08:12:49;100967.13;;;9.86;100.00
68986;BME280;56035;37.534;-122.308;2023-06-01T08:15:18;100983.25;;;9.82;100.00
68986;BME280;56035;37.534;-122.308;2023-06-01T08:17:45;100976.91;;;9.82;100.00
68986;BME280;56035;37.534;-122.308;2023-06-01T08:20:11;100977.28;;;9.85;100.00
68986;BME280;56035;37.534;-122.308;2023-06-01T08:22:37;100973.81;;;9.90;100.00
68986;BME280;56035;37.534;-122.308;2023-06-01T08:25:03;100975.28;;;9.93;100.00
68986;BME280;56035;37.534;-122.308;2023-06-01T08:27:29;100969.78;;;9.93;100.00
68986;BME280;56035;37.534;-122.308;2023-06-01T08:29:55;100961.78;;;9.91;100.00
68986;BME280;56035;37.534;-122.308;2023-06-01T08:32:21;100965.56;;;9.90;100.00
68986;BME280;56035;37.534;-122.308;2023-06-01T08:34:47;100961.53;;;9.93;100.00
68986;BME280;56035;37.534;-122.308;2023-06-01T08:37:13;100962.00;;;9.90;100.00
68986;BME280;56035;37.534;-122.308;2023-06-01T08:39:39;100960.31;;;9.89;100.00
68986;BME280;56035;37.534;-122.308;2023-06-01T08:42:09;100962.69;;;9.85;100.00
68986;BME280;56035;37.534;-122.308;2023-06-01T08:44:38;100961.00;;;9.84;100.00
68986;BME280;56035;37.534;-122.308;2023-06-01T08:47:05;100953.53;;;9.91;100.00
68986;BME280;56035;37.534;-122.308;2023-06-01T08:49:32;100954.09;;;9.93;100.00
68986;BME280;56035;37.534;-122.308;2023-06-01T08:52:08;100947.75;;;9.93;100.00
68986;BME280;56035;37.534;-122.308;2023-06-01T08:54:36;100934.84;;;9.93;100.00
68986;BME280;56035;37.534;-122.308;2023-06-01T08:57:03;100938.88;;;9.91;100.00
68986;BME280;56035;37.534;-122.308;2023-06-01T08:59:29;100934.72;;;9.88;100.00
68986;BME280;56035;37.534;-122.308;2023-06-01T09:01:57;100918.31;;;9.93;100.00
68986;BME280;56035;37.534;-122.308;2023-06-01T09:04:23;100929.34;;;9.93;100.00
68986;BME280;56035;37.534;-122.308;2023-06-01T09:06:48;100924.91;;;9.92;100.00
68986;BME280;56035;37.534;-122.308;2023-06-01T09:09:14;100918.78;;;9.90;100.00
68986;BME280;56035;37.534;-122.308;2023-06-01T09:11:40;100923.72;;;9.88;100.00
68986;BME280;56035;37.534;-122.308;2023-06-01T09:14:19;100930.88;;;9.89;100.00
68986;BME280;56035;37.534;-122.308;2023-06-01T09:16:47;100942.13;;;9.88;100.00
68986;BME280;56035;37.534;-122.308;2023-06-01T09:19:13;100937.94;;;9.85;100.00
68986;BME280;56035;37.534;-122.308;2023-06-01T09:21:39;100937.09;;;9.84;100.00
68986;BME280;56035;37.534;-122.308;2023-06-01T09:24:18;100937.09;;;9.84;100.00
68986;BME280;56035;37.534;-122.308;2023-06-01T09:26:47;100939.69;;;9.79;100.00
68986;BME280;56035;37.534;-122.308;2023-06-01T09:29:13;100939.78;;;9.73;100.00
68986;BME280;56035;37.534;-122.308;2023-06-01T09:34:05;100934.00;;;9.63;100.00
68986;BME280;56035;37.534;-122.308;2023-06-01T09:36:32;100938.41;;;9.64;100.00
68986;BME280;56035;37.534;-122.308;2023-06-01T09:39:04;100927.66;;;9.62;100.00
68986;BME280;56035;37.534;-122.308;2023-06-01T09:41:43;100929.34;;;9.63;100.00
68986;BME280;56035;37.534;-122.308;2023-06-01T09:44:10;100927.19;;;9.65;100.00
68986;BME280;56035;37.534;-122.308;2023-06-01T09:46:45;100928.03;;;9.66;100.00
68986;BME280;56035;37.534;-122.308;2023-06-01T09:49:12;100921.31;;;9.61;100.00
68986;BME280;56035;37.534;-122.308;2023-06-01T09:51:43;100935.28;;;9.60;100.00
68986;BME280;56035;37.534;-122.308;2023-06-01T09:54:09;100934.47;;;9.59;100.00
68986;BME280;56035;37.534;-122.308;2023-06-01T09:56:44;100924.28;;;9.60;100.00
68986;BME280;56035;37.534;-122.308;2023-06-01T09:59:10;100934.91;;;9.56;100.00
68986;BME280;56035;37.534;-122.308;2023-06-01T10:01:36;100934.16;;;9.49;100.00
68986;BME280;56035;37.534;-122.308;2023-06-01T10:04:02;100931.25;;;9.44;100.00
68986;BME280;56035;37.534;-122.308;2023-06-01T10:06:31;100932.81;;;9.40;100.00
68986;BME280;56035;37.534;-122.308;2023-06-01T10:08:59;100921.56;;;9.42;100.00
68986;BME280;56035;37.534;-122.308;2023-06-01T10:11:26;100928.38;;;9.39;100.00
68986;BME280;56035;37.534;-122.308;2023-06-01T10:13:53;100924.56;;;9.40;100.00
68986;BME280;56035;37.534;-122.308;2023-06-01T10:16:20;100919.13;;;9.33;100.00
68986;BME280;56035;37.534;-122.308;2023-06-01T10:18:46;100923.78;;;9.33;100.00
68986;BME280;56035;37.534;-122.308;2023-06-01T10:21:13;100922.97;;;9.32;100.00
68986;BME280;56035;37.534;-122.308;2023-06-01T10:23:40;100923.56;;;9.34;100.00
68986;BME280;56035;37.534;-122.308;2023-06-01T10:26:10;100922.97;;;9.32;100.00
68986;BME280;56035;37.534;-122.308;2023-06-01T10:28:37;100923.16;;;9.31;100.00
68986;BME280;56035;37.534;-122.308;2023-06-01T10:33:54;100919.22;;;9.27;100.00
68986;BME280;56035;37.534;-122.308;2023-06-01T10:36:23;100923.41;;;9.29;100.00
68986;BME280;56035;37.534;-122.308;2023-06-01T10:39:20;100924.72;;;9.27;100.00
68986;BME280;56035;37.534;-122.308;2023-06-01T10:41:37;100917.38;;;9.21;100.00
68986;BME280;56035;37.534;-122.308;2023-06-01T10:44:03;100915.72;;;9.20;100.00
68986;BME280;56035;37.534;-122.308;2023-06-01T10:48:56;100915.53;;;9.14;100.00
68986;BME280;56035;37.534;-122.308;2023-06-01T10:51:22;100915.16;;;9.11;100.00
68986;BME280;56035;37.534;-122.308;2023-06-01T10:53:53;100917.06;;;9.10;100.00
68986;BME280;56035;37.534;-122.308;2023-06-01T10:56:19;100922.19;;;9.07;100.00
68986;BME280;56035;37.534;-122.308;2023-06-01T11:01:31;100922.25;;;9.00;100.00
68986;BME280;56035;37.534;-122.308;2023-06-01T11:03:58;100923.72;;;9.03;100.00
68986;BME280;56035;37.534;-122.308;2023-06-01T11:06:25;100921.19;;;9.01;100.00
68986;BME280;56035;37.534;-122.308;2023-06-01T11:08:52;100919.50;;;9.00;100.00
68986;BME280;56035;37.534;-122.308;2023-06-01T11:11:18;100922.72;;;8.97;100.00
68986;BME280;56035;37.534;-122.308;2023-06-01T11:14:05;100919.50;;;9.00;100.00
68986;BME280;56035;37.534;-122.308;2023-06-01T11:16:31;100917.69;;;8.94;100.00
68986;BME280;56035;37.534;-122.308;2023-06-01T11:19:00;100916.97;;;8.99;100.00
68986;BME280;56035;37.534;-122.308;2023-06-01T11:21:32;100915.94;;;9.00;100.00
68986;BME280;56035;37.534;-122.308;2023-06-01T11:24:11;100908.06;;;9.03;100.00
68986;BME280;56035;37.534;-122.308;2023-06-01T11:26:38;100914.78;;;9.07;100.00
68986;BME280;56035;37.534;-122.308;2023-06-01T11:29:08;100916.53;;;9.02;100.00
68986;BME280;56035;37.534;-122.308;2023-06-01T11:31:47;100919.97;;;8.97;100.00
68986;BME280;56035;37.534;-122.308;2023-06-01T11:34:14;100922.94;;;8.96;100.00
68986;BME280;56035;37.534;-122.308;2023-06-01T11:36:44;100927.59;;;8.95;100.00
68986;BME280;56035;37.534;-122.308;2023-06-01T11:39:16;100921.19;;;9.01;100.00
68986;BME280;56035;37.534;-122.308;2023-06-01T11:41:43;100933.25;;;9.00;100.00
68986;BME280;56035;37.534;-122.308;2023-06-01T11:44:09;100926.69;;;9.01;100.00
68986;BME280;56035;37.534;-122.308;2023-06-01T11:46:35;100932.19;;;9.01;100.00
68986;BME280;56035;37.534;-122.308;2023-06-01T11:49:02;100930.50;;;9.00;100.00
68986;BME280;56035;37.534;-122.308;2023-06-01T11:51:36;100932.56;;;9.05;100.00
68986;BME280;56035;37.534;-122.308;2023-06-01T11:54:02;100933.25;;;9.00;100.00
68986;BME280;56035;37.534;-122.308;2023-06-01T11:56:31;100930.44;;;9.07;100.00
68986;BME280;56035;37.534;-122.308;2023-06-01T11:59:02;100931.03;;;9.09;100.00
68986;BME280;56035;37.534;-122.308;2023-06-01T12:01:34;100939.91;;;9.11;100.00
68986;BME280;56035;37.534;-122.308;2023-06-01T12:04:02;100934.66;;;9.09;100.00
68986;BME280;56035;37.534;-122.308;2023-06-01T12:06:29;100936.78;;;9.07;100.00
68986;BME280;56035;37.534;-122.308;2023-06-01T12:08:56;100937.16;;;9.11;100.00
68986;BME280;56035;37.534;-122.308;2023-06-01T12:11:23;100940.28;;;9.14;100.00
68986;BME280;56035;37.534;-122.308;2023-06-01T12:13:52;100945.63;;;9.09;100.00
68986;BME280;56035;37.534;-122.308;2023-06-01T12:16:18;100936.31;;;9.10;100.00
68986;BME280;56035;37.534;-122.308;2023-06-01T12:18:44;100943.03;;;9.14;100.00
68986;BME280;56035;37.534;-122.308;2023-06-01T12:21:10;100940.13;;;9.09;100.00
68986;BME280;56035;37.534;-122.308;2023-06-01T12:23:36;100936.53;;;9.09;100.00
68986;BME280;56035;37.534;-122.308;2023-06-01T12:26:02;100936.31;;;9.10;100.00
68986;BME280;56035;37.534;-122.308;2023-06-01T12:28:29;100940.13;;;9.09;100.00
68986;BME280;56035;37.534;-122.308;2023-06-01T12:31:12;100935.22;;;9.11;100.00
68986;BME280;56035;37.534;-122.308;2023-06-01T12:33:38;100941.97;;;9.16;100.00
68986;BME280;56035;37.534;-122.308;2023-06-01T12:36:04;100944.09;;;9.13;100.00
68986;BME280;56035;37.534;-122.308;2023-06-01T12:38:38;100935.03;;;9.13;100.00
68986;BME280;56035;37.534;-122.308;2023-06-01T12:41:14;100944.72;;;9.16;100.00